sensor_id;sensor_type;location;lat;lon;timestamp;pressure;altitude;pressure_sealevel;temperature
73894;BMP280;62699;50.534;12.784;2022-09-30T00:00:28;95604.31;;;7.29
73894;BMP280;62699;50.534;12.784;2022-09-30T00:05:46;95600.88;;;7.29
73894;BMP280;62699;50.534;12.784;2022-09-30T00:11:10;95597.22;;;7.26
73894;BMP280;62699;50.534;12.784;2022-09-30T00:16:32;95604.03;;;7.27
73894;BMP280;62699;50.534;12.784;2022-09-30T00:21:52;95608.66;;;7.27
73894;BMP280;62699;50.534;12.784;2022-09-30T00:27:11;95602.59;;;7.26
73894;BMP280;62699;50.534;12.784;2022-09-30T00:32:31;95606.47;;;7.25
73894;BMP280;62699;50.534;12.784;2022-09-30T00:37:49;95611.81;;;7.25
73894;BMP280;62699;50.534;12.784;2022-09-30T00:43:13;95613.03;;;7.24
73894;BMP280;62699;50.534;12.784;2022-09-30T00:48:36;95621.78;;;7.25
73894;BMP280;62699;50.534;12.784;2022-09-30T00:54:00;95621.06;;;7.24
73894;BMP280;62699;50.534;12.784;2022-09-30T00:59:24;95622.53;;;7.25
73894;BMP280;62699;50.534;12.784;2022-09-30T01:04:46;95618.66;;;7.26
73894;BMP280;62699;50.534;12.784;2022-09-30T01:10:06;95616.44;;;7.25
73894;BMP280;62699;50.534;12.784;2022-09-30T01:15:34;95617.19;;;7.25
73894;BMP280;62699;50.534;12.784;2022-09-30T01:21:10;95618.38;;;7.24
73894;BMP280;62699;50.534;12.784;2022-09-30T01:32:32;95620.09;;;7.27
73894;BMP280;62699;50.534;12.784;2022-09-30T01:43:41;95621.56;;;7.28
73894;BMP280;62699;50.534;12.784;2022-09-30T01:49:16;95631.53;;;7.28
73894;BMP280;62699;50.534;12.784;2022-09-30T02:00:15;95642.00;;;7.31
73894;BMP280;62699;50.534;12.784;2022-09-30T02:11:03;95642.00;;;7.31
73894;BMP280;62699;50.534;12.784;2022-09-30T02:16:37;95649.53;;;7.33
73894;BMP280;62699;50.534;12.784;2022-09-30T02:22:37;95651.28;;;7.30
73894;BMP280;62699;50.534;12.784;2022-09-30T02:28:04;95659.78;;;7.29
73894;BMP280;62699;50.534;12.784;2022-09-30T02:33:43;95653.22;;;7.30
73894;BMP280;62699;50.534;12.784;2022-09-30T02:39:08;95659.78;;;7.29
73894;BMP280;62699;50.534;12.784;2022-09-30T02:44:29;95652.50;;;7.29
73894;BMP280;62699;50.534;12.784;2022-09-30T02:49:55;95651.75;;;7.29
73894;BMP280;62699;50.534;12.784;2022-09-30T03:00:43;95662.94;;;7.27
73894;BMP280;62699;50.534;12.784;2022-09-30T03:06:03;95659.28;;;7.25
73894;BMP280;62699;50.534;12.784;2022-09-30T03:11:24;95666.56;;;7.24
73894;BMP280;62699;50.534;12.784;2022-09-30T03:38:53;95695.03;;;7.16
73894;BMP280;62699;50.534;12.784;2022-09-30T03:44:22;95701.13;;;7.17
73894;BMP280;62699;50.534;12.784;2022-09-30T03:49:53;95691.88;;;7.18
73894;BMP280;62699;50.534;12.784;2022-09-30T03:55:14;95697.25;;;7.18
73894;BMP280;62699;50.534;12.784;2022-09-30T04:00:35;95692.63;;;7.18
73894;BMP280;62699;50.534;12.784;2022-09-30T04:05:55;95704.53;;;7.17
73894;BMP280;62699;50.534;12.784;2022-09-30T04:11:16;95704.06;;;7.19
73894;BMP280;62699;50.534;12.784;2022-09-30T04:16:35;95699.19;;;7.17
73894;BMP280;62699;50.534;12.784;2022-09-30T04:21:55;95698.91;;;7.15
73894;BMP280;62699;50.534;12.784;2022-09-30T04:27:14;95699.63;;;7.10
73894;BMP280;62699;50.534;12.784;2022-09-30T04:32:34;95709.13;;;7.11
73894;BMP280;62699;50.534;12.784;2022-09-30T04:37:53;95716.66;;;7.07
73894;BMP280;62699;50.534;12.784;2022-09-30T04:43:12;95717.34;;;7.02
73894;BMP280;62699;50.534;12.784;2022-09-30T04:48:31;95713.25;;;7.01
73894;BMP280;62699;50.534;12.784;2022-09-30T04:53:51;95729.75;;;6.99
73894;BMP280;62699;50.534;12.784;2022-09-30T04:59:10;95739.72;;;6.99
73894;BMP280;62699;50.534;12.784;2022-09-30T05:04:30;95751.38;;;6.96
73894;BMP280;62699;50.534;12.784;2022-09-30T05:09:51;95762.34;;;6.98
73894;BMP280;62699;50.534;12.784;2022-09-30T05:15:11;95765.03;;;6.98
73894;BMP280;62699;50.534;12.784;2022-09-30T05:20:30;95770.16;;;7.01
73894;BMP280;62699;50.534;12.784;2022-09-30T05:25:50;95771.13;;;7.04
73894;BMP280;62699;50.534;12.784;2022-09-30T05:31:10;95775.03;;;7.08
73894;BMP280;62699;50.534;12.784;2022-09-30T05:36:31;95779.94;;;7.16
73894;BMP280;62699;50.534;12.784;2022-09-30T05:41:50;95787.03;;;7.24
73894;BMP280;62699;50.534;12.784;2022-09-30T05:47:09;95792.66;;;7.32
73894;BMP280;62699;50.534;12.784;2022-09-30T05:52:29;95800.25;;;7.39
73894;BMP280;62699;50.534;12.784;2022-09-30T05:57:58;95798.31;;;7.45
73894;BMP280;62699;50.534;12.784;2022-09-30T06:03:17;95800.06;;;7.54
73894;BMP280;62699;50.534;12.784;2022-09-30T06:08:37;95799.81;;;7.63
73894;BMP280;62699;50.534;12.784;2022-09-30T06:13:56;95820.56;;;7.73
73894;BMP280;62699;50.534;12.784;2022-09-30T06:19:16;95816.94;;;7.82
73894;BMP280;62699;50.534;12.784;2022-09-30T06:24:35;95825.47;;;7.91
73894;BMP280;62699;50.534;12.784;2022-09-30T06:30:07;95830.88;;;8.08
73894;BMP280;62699;50.534;12.784;2022-09-30T06:35:27;95836.47;;;8.21
73894;BMP280;62699;50.534;12.784;2022-09-30T06:40:47;95851.09;;;8.26
73894;BMP280;62699;50.534;12.784;2022-09-30T06:46:09;95861.13;;;8.36
73894;BMP280;62699;50.534;12.784;2022-09-30T06:51:31;95856.25;;;8.52
73894;BMP280;62699;50.534;12.784;2022-09-30T06:56:54;95861.34;;;8.66
73894;BMP280;62699;50.534;12.784;2022-09-30T07:02:16;95863.78;;;8.92
73894;BMP280;62699;50.534;12.784;2022-09-30T07:07:35;95870.81;;;9.17
73894;BMP280;62699;50.534;12.784;2022-09-30T07:12:55;95874.66;;;9.33
73894;BMP280;62699;50.534;12.784;2022-09-30T07:18:14;95871.41;;;9.51
73894;BMP280;62699;50.534;12.784;2022-09-30T07:23:36;95872.03;;;9.74
73894;BMP280;62699;50.534;12.784;2022-09-30T07:28:55;95871.22;;;9.90
73894;BMP280;62699;50.534;12.784;2022-09-30T07:34:13;95885.66;;;10.28
73894;BMP280;62699;50.534;12.784;2022-09-30T07:39:33;95890.66;;;10.48
73894;BMP280;62699;50.534;12.784;2022-09-30T07:44:53;95906.34;;;10.98
73894;BMP280;62699;50.534;12.784;2022-09-30T07:50:12;95910.75;;;11.26
73894;BMP280;62699;50.534;12.784;2022-09-30T07:55:34;95915.41;;;11.68
73894;BMP280;62699;50.534;12.784;2022-09-30T08:00:53;95920.34;;;12.65
73894;BMP280;62699;50.534;12.784;2022-09-30T08:06:17;95921.84;;;13.32
73894;BMP280;62699;50.534;12.784;2022-09-30T08:11:36;95937.50;;;18.15
73894;BMP280;62699;50.534;12.784;2022-09-30T08:16:57;95925.78;;;19.50
73894;BMP280;62699;50.534;12.784;2022-09-30T08:22:17;95931.91;;;19.94
73894;BMP280;62699;50.534;12.784;2022-09-30T08:27:37;95918.63;;;19.81
73894;BMP280;62699;50.534;12.784;2022-09-30T08:32:57;95924.28;;;19.93
73894;BMP280;62699;50.534;12.784;2022-09-30T08:38:17;95935.47;;;19.61
73894;BMP280;62699;50.534;12.784;2022-09-30T08:49:36;95934.09;;;17.82
73894;BMP280;62699;50.534;12.784;2022-09-30T08:54:53;95941.53;;;17.35
73894;BMP280;62699;50.534;12.784;2022-09-30T09:00:16;95946.03;;;16.77
73894;BMP280;62699;50.534;12.784;2022-09-30T09:05:59;95952.16;;;15.58
73894;BMP280;62699;50.534;12.784;2022-09-30T09:11:42;95943.03;;;15.33
73894;BMP280;62699;50.534;12.784;2022-09-30T09:17:23;95945.50;;;15.59
73894;BMP280;62699;50.534;12.784;2022-09-30T09:22:45;95942.03;;;16.70
73894;BMP280;62699;50.534;12.784;2022-09-30T09:28:18;95943.88;;;16.45
73894;BMP280;62699;50.534;12.784;2022-09-30T09:33:41;95940.91;;;16.89
73894;BMP280;62699;50.534;12.784;2022-09-30T09:50:04;95946.38;;;16.28
73894;BMP280;62699;50.534;12.784;2022-09-30T09:55:27;95936.56;;;15.95
73894;BMP280;62699;50.534;12.784;2022-09-30T10:00:46;95939.75;;;15.70
73894;BMP280;62699;50.534;12.784;2022-09-30T10:06:09;95944.56;;;16.38
73894;BMP280;62699;50.534;12.784;2022-09-30T10:11:28;95946.56;;;16.60
73894;BMP280;62699;50.534;12.784;2022-09-30T10:16:49;95942.75;;;16.56
73894;BMP280;62699;50.534;12.784;2022-09-30T10:27:35;95930.84;;;14.91
73894;BMP280;62699;50.534;12.784;2022-09-30T10:32:54;95935.84;;;14.58
73894;BMP280;62699;50.534;12.784;2022-09-30T10:38:14;95952.50;;;14.62
73894;BMP280;62699;50.534;12.784;2022-09-30T10:43:43;95960.47;;;14.68
73894;BMP280;62699;50.534;12.784;2022-09-30T10:50:15;95965.22;;;14.75
73894;BMP280;62699;50.534;12.784;2022-09-30T10:55:27;95962.91;;;14.79
73894;BMP280;62699;50.534;12.784;2022-09-30T11:00:55;95956.47;;;14.61
73894;BMP280;62699;50.534;12.784;2022-09-30T11:06:15;95964.50;;;14.74
73894;BMP280;62699;50.534;12.784;2022-09-30T11:11:42;95954.47;;;14.83
73894;BMP280;62699;50.534;12.784;2022-09-30T11:17:32;95959.13;;;15.03
73894;BMP280;62699;50.534;12.784;2022-09-30T11:23:00;95953.44;;;15.21
73894;BMP280;62699;50.534;12.784;2022-09-30T11:34:18;95957.72;;;15.45
73894;BMP280;62699;50.534;12.784;2022-09-30T12:02:52;95941.22;;;15.87
73894;BMP280;62699;50.534;12.784;2022-09-30T12:08:35;95941.16;;;16.75
73894;BMP280;62699;50.534;12.784;2022-09-30T12:13:59;95938.06;;;17.81
73894;BMP280;62699;50.534;12.784;2022-09-30T12:19:41;95931.78;;;17.24
73894;BMP280;62699;50.534;12.784;2022-09-30T12:25:10;95926.91;;;17.22
73894;BMP280;62699;50.534;12.784;2022-09-30T12:30:33;95925.69;;;17.01
73894;BMP280;62699;50.534;12.784;2022-09-30T12:36:11;95923.69;;;17.56
73894;BMP280;62699;50.534;12.784;2022-09-30T12:41:58;95926.13;;;17.69
73894;BMP280;62699;50.534;12.784;2022-09-30T12:47:32;95925.59;;;17.31
73894;BMP280;62699;50.534;12.784;2022-09-30T12:52:54;95933.00;;;16.75
73894;BMP280;62699;50.534;12.784;2022-09-30T13:09:20;95934.41;;;16.76
73894;BMP280;62699;50.534;12.784;2022-09-30T13:14:41;95935.81;;;17.00
73894;BMP280;62699;50.534;12.784;2022-09-30T13:26:01;95947.06;;;16.97
73894;BMP280;62699;50.534;12.784;2022-09-30T13:31:22;95956.13;;;17.07
73894;BMP280;62699;50.534;12.784;2022-09-30T13:42:16;95955.47;;;16.61
73894;BMP280;62699;50.534;12.784;2022-09-30T13:47:44;95953.59;;;16.18
73894;BMP280;62699;50.534;12.784;2022-09-30T13:53:12;95957.50;;;15.87
73894;BMP280;62699;50.534;12.784;2022-09-30T14:05:14;95954.31;;;15.16
73894;BMP280;62699;50.534;12.784;2022-09-30T14:11:14;95959.31;;;15.05
73894;BMP280;62699;50.534;12.784;2022-09-30T14:22:35;95959.34;;;15.12
73894;BMP280;62699;50.534;12.784;2022-09-30T14:28:05;95965.38;;;15.26
73894;BMP280;62699;50.534;12.784;2022-09-30T14:33:27;95968.19;;;15.34
73894;BMP280;62699;50.534;12.784;2022-09-30T14:38:52;95968.88;;;15.34
73894;BMP280;62699;50.534;12.784;2022-09-30T14:44:14;95984.28;;;15.39
73894;BMP280;62699;50.534;12.784;2022-09-30T14:49:35;95976.59;;;15.58
73894;BMP280;62699;50.534;12.784;2022-09-30T14:54:55;95980.06;;;15.66
73894;BMP280;62699;50.534;12.784;2022-09-30T15:00:33;95981.28;;;15.50
73894;BMP280;62699;50.534;12.784;2022-09-30T15:05:55;95977.78;;;15.42
73894;BMP280;62699;50.534;12.784;2022-09-30T15:11:20;95971.97;;;15.38
73894;BMP280;62699;50.534;12.784;2022-09-30T15:16:47;95985.84;;;15.35
73894;BMP280;62699;50.534;12.784;2022-09-30T15:22:08;95993.44;;;15.00
73894;BMP280;62699;50.534;12.784;2022-09-30T15:27:30;95992.19;;;14.81
73894;BMP280;62699;50.534;12.784;2022-09-30T15:33:02;95990.34;;;14.55
73894;BMP280;62699;50.534;12.784;2022-09-30T15:38:24;95992.81;;;14.11
73894;BMP280;62699;50.534;12.784;2022-09-30T15:43:46;95985.97;;;13.84
73894;BMP280;62699;50.534;12.784;2022-09-30T15:49:29;95993.41;;;13.70
73894;BMP280;62699;50.534;12.784;2022-09-30T15:54:48;96003.41;;;13.62
73894;BMP280;62699;50.534;12.784;2022-09-30T16:00:34;96007.56;;;13.50
73894;BMP280;62699;50.534;12.784;2022-09-30T16:06:04;96004.22;;;13.44
73894;BMP280;62699;50.534;12.784;2022-09-30T16:11:27;96004.03;;;13.29
73894;BMP280;62699;50.534;12.784;2022-09-30T16:16:52;96015.81;;;13.00
73894;BMP280;62699;50.534;12.784;2022-09-30T16:28:09;96028.03;;;12.56
73894;BMP280;62699;50.534;12.784;2022-09-30T16:33:54;96029.31;;;12.36
73894;BMP280;62699;50.534;12.784;2022-09-30T16:39:16;96024.63;;;12.18
73894;BMP280;62699;50.534;12.784;2022-09-30T16:44:35;96018.56;;;11.93
73894;BMP280;62699;50.534;12.784;2022-09-30T16:49:55;96027.56;;;11.77
73894;BMP280;62699;50.534;12.784;2022-09-30T16:55:14;96031.22;;;11.55
73894;BMP280;62699;50.534;12.784;2022-09-30T17:00:33;96038.78;;;11.32
73894;BMP280;62699;50.534;12.784;2022-09-30T17:05:53;96039.72;;;11.11
73894;BMP280;62699;50.534;12.784;2022-09-30T17:11:12;96035.50;;;10.85
73894;BMP280;62699;50.534;12.784;2022-09-30T17:16:32;96047.88;;;10.58
73894;BMP280;62699;50.534;12.784;2022-09-30T17:21:52;96045.03;;;10.45
73894;BMP280;62699;50.534;12.784;2022-09-30T17:27:11;96046.56;;;10.35
73894;BMP280;62699;50.534;12.784;2022-09-30T17:32:30;96053.72;;;10.22
73894;BMP280;62699;50.534;12.784;2022-09-30T17:37:49;96060.13;;;10.02
73894;BMP280;62699;50.534;12.784;2022-09-30T17:43:08;96071.66;;;9.91
73894;BMP280;62699;50.534;12.784;2022-09-30T17:48:31;96063.63;;;9.80
73894;BMP280;62699;50.534;12.784;2022-09-30T17:53:50;96067.06;;;9.70
73894;BMP280;62699;50.534;12.784;2022-09-30T17:59:10;96065.59;;;9.57
73894;BMP280;62699;50.534;12.784;2022-09-30T18:04:33;96083.94;;;9.37
73894;BMP280;62699;50.534;12.784;2022-09-30T18:09:54;96081.50;;;9.28
73894;BMP280;62699;50.534;12.784;2022-09-30T18:15:16;96086.84;;;9.16
73894;BMP280;62699;50.534;12.784;2022-09-30T18:20:45;96093.19;;;9.02
73894;BMP280;62699;50.534;12.784;2022-09-30T18:26:05;96095.34;;;8.87
73894;BMP280;62699;50.534;12.784;2022-09-30T18:31:24;96085.31;;;8.71
73894;BMP280;62699;50.534;12.784;2022-09-30T18:36:48;96090.13;;;8.56
73894;BMP280;62699;50.534;12.784;2022-09-30T18:42:08;96090.81;;;8.40
73894;BMP280;62699;50.534;12.784;2022-09-30T18:47:27;96098.81;;;8.28
73894;BMP280;62699;50.534;12.784;2022-09-30T18:52:47;96091.72;;;8.25
73894;BMP280;62699;50.534;12.784;2022-09-30T18:58:07;96086.31;;;8.20
73894;BMP280;62699;50.534;12.784;2022-09-30T19:03:28;96079.25;;;8.17
73894;BMP280;62699;50.534;12.784;2022-09-30T19:08:47;96087.19;;;8.00
73894;BMP280;62699;50.534;12.784;2022-09-30T19:14:09;96081.72;;;7.83
73894;BMP280;62699;50.534;12.784;2022-09-30T19:19:30;96077.00;;;7.67
73894;BMP280;62699;50.534;12.784;2022-09-30T19:24:51;96068.84;;;7.50
73894;BMP280;62699;50.534;12.784;2022-09-30T19:30:12;96069.97;;;7.38
73894;BMP280;62699;50.534;12.784;2022-09-30T19:35:32;96071.81;;;7.27
73894;BMP280;62699;50.534;12.784;2022-09-30T19:41:01;96071.22;;;7.12
73894;BMP280;62699;50.534;12.784;2022-09-30T19:46:20;96073.78;;;7.00
73894;BMP280;62699;50.534;12.784;2022-09-30T19:51:44;96079.03;;;6.89
73894;BMP280;62699;50.534;12.784;2022-09-30T19:57:04;96075.03;;;6.79
73894;BMP280;62699;50.534;12.784;2022-09-30T20:02:23;96074.91;;;6.68
73894;BMP280;62699;50.534;12.784;2022-09-30T20:07:42;96074.56;;;6.60
73894;BMP280;62699;50.534;12.784;2022-09-30T20:13:01;96086.88;;;6.52
73894;BMP280;62699;50.534;12.784;2022-09-30T20:18:22;96101.19;;;6.49
73894;BMP280;62699;50.534;12.784;2022-09-30T20:23:42;96096.00;;;6.46
73894;BMP280;62699;50.534;12.784;2022-09-30T20:29:04;96093.94;;;6.35
73894;BMP280;62699;50.534;12.784;2022-09-30T20:34:32;96094.09;;;6.26
73894;BMP280;62699;50.534;12.784;2022-09-30T20:39:55;96091.50;;;6.17
73894;BMP280;62699;50.534;12.784;2022-09-30T20:45:16;96100.19;;;6.12
73894;BMP280;62699;50.534;12.784;2022-09-30T20:50:38;96098.19;;;6.07
73894;BMP280;62699;50.534;12.784;2022-09-30T20:55:59;96102.72;;;6.01
73894;BMP280;62699;50.534;12.784;2022-09-30T21:01:21;96101.44;;;5.96
73894;BMP280;62699;50.534;12.784;2022-09-30T21:06:40;96114.41;;;6.03
73894;BMP280;62699;50.534;12.784;2022-09-30T21:12:00;96111.25;;;6.05
73894;BMP280;62699;50.534;12.784;2022-09-30T21:17:19;96103.53;;;6.07
73894;BMP280;62699;50.534;12.784;2022-09-30T21:22:39;96102.06;;;6.06
73894;BMP280;62699;50.534;12.784;2022-09-30T21:28:03;96090.28;;;5.98
73894;BMP280;62699;50.534;12.784;2022-09-30T21:33:24;96088.66;;;5.86
73894;BMP280;62699;50.534;12.784;2022-09-30T21:38:43;96069.31;;;5.76
73894;BMP280;62699;50.534;12.784;2022-09-30T21:44:03;96075.06;;;5.69
73894;BMP280;62699;50.534;12.784;2022-09-30T21:49:42;96077.09;;;5.59
73894;BMP280;62699;50.534;12.784;2022-09-30T21:55:02;96071.38;;;5.52
73894;BMP280;62699;50.534;12.784;2022-09-30T22:00:24;96079.09;;;5.50
73894;BMP280;62699;50.534;12.784;2022-09-30T22:05:52;96073.97;;;5.46
73894;BMP280;62699;50.534;12.784;2022-09-30T22:11:15;96081.41;;;5.42
73894;BMP280;62699;50.534;12.784;2022-09-30T22:16:35;96076.75;;;5.37
73894;BMP280;62699;50.534;12.784;2022-09-30T22:21:54;96092.75;;;5.37
73894;BMP280;62699;50.534;12.784;2022-09-30T22:27:14;96095.59;;;5.48
73894;BMP280;62699;50.534;12.784;2022-09-30T22:32:33;96094.03;;;5.41
73894;BMP280;62699;50.534;12.784;2022-09-30T22:37:53;96092.09;;;5.27
73894;BMP280;62699;50.534;12.784;2022-09-30T22:43:31;96084.63;;;5.17
73894;BMP280;62699;50.534;12.784;2022-09-30T22:48:51;96091.25;;;5.07
73894;BMP280;62699;50.534;12.784;2022-09-30T22:54:11;96095.63;;;4.95
73894;BMP280;62699;50.534;12.784;2022-09-30T22:59:31;96097.94;;;4.87
73894;BMP280;62699;50.534;12.784;2022-09-30T23:04:50;96104.16;;;4.84
73894;BMP280;62699;50.534;12.784;2022-09-30T23:10:10;96097.81;;;4.82
73894;BMP280;62699;50.534;12.784;2022-09-30T23:15:28;96108.06;;;4.74
73894;BMP280;62699;50.534;12.784;2022-09-30T23:21:03;96112.13;;;4.70
73894;BMP280;62699;50.534;12.784;2022-09-30T23:26:24;96108.16;;;4.65
73894;BMP280;62699;50.534;12.784;2022-09-30T23:31:44;96114.81;;;4.60
73894;BMP280;62699;50.534;12.784;2022-09-30T23:37:03;96115.34;;;4.50
73894;BMP280;62699;50.534;12.784;2022-09-30T23:42:23;96108.72;;;4.45
73894;BMP280;62699;50.534;12.784;2022-09-30T23:47:45;96099.75;;;4.34
73894;BMP280;62699;50.534;12.784;2022-09-30T23:53:06;96105.69;;;4.29
73894;BMP280;62699;50.534;12.784;2022-09-30T23:58:26;96099.06;;;4.24
